Platzwetter / Webcam

  • Aktuelles Bild
  • Verlauf
  • Verlauf
  • Verlauf
  • Verlauf
  • Verlauf
  • Verlauf
  • Verlauf
  • Verlauf
  • Verlauf
  • Verlauf
  • Verlauf
  • Verlauf
  • Verlauf
  • Verlauf
  • Verlauf
  • Verlauf
  • Verlauf

Flugwetter Linz

[Quelle: ADDS]
METAR
LOWL 251820Z 21003KT 9999 FEW032 17/13 Q1014 NOSIG =
TAF
LOWL 251715Z 2518/2618 27003KT 9999 FEW035 TX22/2612Z TN10/2603Z PROB40 2602/2606 VRB01KT 0400 BCFG NSC BECMG 2609/2612 08005KT =

Flugwetter Salzburg

[Quelle: ADDS]
METAR
LOWS 251820Z 33005KT 9999 FEW032 BKN300 16/12 Q1014 NOSIG =
TAF
LOWS 251715Z 2518/2618 32006KT 9999 FEW035 SCT300 TX22/2612Z TN07/2602Z BECMG 2518/2520 16005KT CAVOK PROB30 TEMPO 2603/2607 VRB02KT 1200 BCFG FEW002 BECMG 2608/2610 02007KT 9999 FEW050 SCT300 PROB30 TEMPO 2612/2618 FEW050 FEW060CB BKN300 =

Fliegen lernen

Die Fliegerschule der WMW...

Termine & Events

Aktuelles & News

+++ Aktuelle Spritpreise (11.05.2016): | Jet A-1 € 1,292 | Super Plus 98 ETBE € 1,370 | Avgas 100LL € 1,944 | +++ Schleicher ASK18 günstig zu verkaufen! Weitere Infos finden Sie hier..